createdAt,value
2023-04-20T00:02:10.137Z,1.70
2023-04-20T00:05:13.207Z,1.75
2023-04-20T00:08:16.485Z,1.88
2023-04-20T00:11:18.954Z,1.70
2023-04-20T00:14:21.584Z,1.70
2023-04-20T00:17:24.338Z,2.13
2023-04-20T00:20:27.038Z,1.98
2023-04-20T00:23:29.324Z,1.65
2023-04-20T00:26:31.538Z,1.75
2023-04-20T00:29:34.440Z,1.70
2023-04-20T00:32:41.310Z,1.90
2023-04-20T00:35:44.443Z,2.05
2023-04-20T00:38:47.473Z,1.75
2023-04-20T00:41:50.587Z,1.98
2023-04-20T00:44:54.357Z,1.80
2023-04-20T00:47:57.794Z,1.90
2023-04-20T00:51:00.113Z,1.77
2023-04-20T00:54:03.470Z,2.00
2023-04-20T00:57:05.701Z,1.83
2023-04-20T01:00:10.721Z,1.80
2023-04-20T01:03:14.194Z,1.65
2023-04-20T01:06:16.472Z,1.48
2023-04-20T01:09:19.036Z,1.70
2023-04-20T01:12:23.738Z,1.80
2023-04-20T01:15:27.229Z,1.67
2023-04-20T01:18:30.298Z,1.58
2023-04-20T01:21:32.556Z,1.50
2023-04-20T01:24:35.594Z,1.63
2023-04-20T01:27:38.483Z,1.67
2023-04-20T01:30:41.657Z,1.77
2023-04-20T01:33:44.663Z,1.80
2023-04-20T01:36:47.355Z,1.70
2023-04-20T01:39:49.371Z,1.80
2023-04-20T01:42:52.182Z,1.70
2023-04-20T01:45:54.833Z,1.70
2023-04-20T01:48:57.828Z,1.77
2023-04-20T01:52:00.940Z,1.80
2023-04-20T01:55:03.266Z,1.80
2023-04-20T01:58:05.617Z,1.58
2023-04-20T02:01:09.243Z,1.77
2023-04-20T02:04:12.441Z,2.40
2023-04-20T02:07:15.804Z,2.10
2023-04-20T02:10:19.388Z,1.67
2023-04-20T02:13:22.657Z,1.83
2023-04-20T02:16:25.544Z,1.85
2023-04-20T02:19:28.480Z,2.00
2023-04-20T02:22:33.867Z,1.98
2023-04-20T02:25:37.022Z,1.58
2023-04-20T02:28:40.700Z,1.90
2023-04-20T02:31:42.804Z,1.80
2023-04-20T02:34:45.666Z,1.75
2023-04-20T02:37:48.420Z,2.00
2023-04-20T02:40:50.697Z,2.00
2023-04-20T02:43:53.541Z,1.85
2023-04-20T02:46:56.952Z,2.10
2023-04-20T02:50:01.000Z,1.98
2023-04-20T02:53:05.931Z,1.85
2023-04-20T02:56:11.376Z,2.05
2023-04-20T02:59:25.688Z,2.22
2023-04-20T03:02:34.876Z,1.80
2023-04-20T03:05:38.046Z,1.88
2023-04-20T03:08:41.765Z,1.75
2023-04-20T03:12:06.463Z,1.40
2023-04-20T03:15:31.824Z,1.63
2023-04-20T03:18:52.652Z,1.60
2023-04-20T03:21:55.642Z,1.63
2023-04-20T03:24:59.171Z,1.42
2023-04-20T03:28:27.521Z,1.60
2023-04-20T03:31:30.228Z,1.25
2023-04-20T03:34:33.586Z,1.60
2023-04-20T03:37:36.726Z,1.70
2023-04-20T03:40:40.808Z,1.40
2023-04-20T03:43:43.492Z,1.55
2023-04-20T03:46:45.694Z,4.13
2023-04-20T03:49:48.168Z,5.55
2023-04-20T03:52:50.714Z,5.90
2023-04-20T03:55:53.377Z,7.55
2023-04-20T03:58:56.894Z,10.55
2023-04-20T04:02:01.435Z,15.32
2023-04-20T04:05:04.289Z,14.38
2023-04-20T04:08:06.755Z,14.27
2023-04-20T04:11:09.389Z,13.20
2023-04-20T04:14:11.847Z,13.43
2023-04-20T04:17:15.583Z,13.10
2023-04-20T04:20:18.044Z,12.25
2023-04-20T04:23:20.753Z,11.75
2023-04-20T04:26:35.379Z,11.07
2023-04-20T04:29:39.390Z,10.40
2023-04-20T04:32:44.724Z,9.95
2023-04-20T04:35:47.321Z,9.82
2023-04-20T04:38:50.909Z,9.38
2023-04-20T04:41:53.720Z,9.82
2023-04-20T04:45:04.920Z,9.73
2023-04-20T04:48:11.004Z,9.13
2023-04-20T04:51:13.402Z,8.70
2023-04-20T04:54:15.737Z,9.02
2023-04-20T04:57:18.843Z,9.13
2023-04-20T05:00:21.695Z,8.13
2023-04-20T05:03:24.684Z,8.48
2023-04-20T05:06:27.519Z,7.55
2023-04-20T05:09:29.738Z,7.85
2023-04-20T05:12:32.457Z,7.10
2023-04-20T05:15:34.738Z,6.30
2023-04-20T05:18:37.918Z,6.63
2023-04-20T05:21:41.422Z,6.15
2023-04-20T05:24:44.275Z,6.22
2023-04-20T05:27:47.152Z,5.75
2023-04-20T05:30:50.000Z,5.82
2023-04-20T05:33:52.681Z,5.05
2023-04-20T05:36:54.745Z,5.30
2023-04-20T05:39:57.593Z,4.68
2023-04-20T05:43:00.427Z,4.80
2023-04-20T05:46:03.652Z,4.88
2023-04-20T05:49:07.131Z,4.72
2023-04-20T05:52:09.554Z,4.22
2023-04-20T05:55:12.417Z,4.47
2023-04-20T05:58:15.566Z,4.63
2023-04-20T06:01:19.179Z,4.60
2023-04-20T06:04:22.590Z,4.25
2023-04-20T06:07:26.150Z,4.35
2023-04-20T06:10:29.227Z,3.60
2023-04-20T06:13:31.643Z,3.58
2023-04-20T06:16:34.405Z,3.45
2023-04-20T06:19:36.668Z,3.10
2023-04-20T06:22:39.298Z,3.28
2023-04-20T06:25:42.058Z,3.55
2023-04-20T06:28:45.001Z,2.90
2023-04-20T06:31:47.553Z,3.00
2023-04-20T06:34:50.255Z,2.80
2023-04-20T06:37:52.550Z,3.10
2023-04-20T06:40:55.221Z,3.20
2023-04-20T06:43:59.094Z,3.00
2023-04-20T06:47:02.164Z,2.90
2023-04-20T06:50:05.854Z,3.33
2023-04-20T06:53:08.869Z,2.80
2023-04-20T06:56:11.667Z,2.65
2023-04-20T06:59:14.491Z,2.63
2023-04-20T07:02:17.472Z,2.90
2023-04-20T07:05:20.134Z,2.63
2023-04-20T07:08:23.253Z,2.80
2023-04-20T07:11:27.107Z,2.83
2023-04-20T07:14:30.262Z,2.70
2023-04-20T07:17:33.842Z,2.70
2023-04-20T07:20:37.454Z,2.78
2023-04-20T07:23:41.162Z,2.45
2023-04-20T07:26:44.957Z,2.97
2023-04-20T07:29:47.648Z,3.13
2023-04-20T07:32:50.449Z,2.80
2023-04-20T07:35:53.226Z,3.28
2023-04-20T07:38:55.987Z,3.03
2023-04-20T07:41:58.694Z,2.72
2023-04-20T07:45:01.284Z,2.80
2023-04-20T07:48:04.340Z,2.65
2023-04-20T07:51:07.993Z,2.95
2023-04-20T07:54:11.312Z,2.90
2023-04-20T07:57:13.903Z,2.60
2023-04-20T08:00:16.701Z,2.53
2023-04-20T08:03:20.897Z,3.00
2023-04-20T08:06:23.707Z,2.70
2023-04-20T08:09:26.610Z,2.47
2023-04-20T08:12:29.734Z,2.50
2023-04-20T08:15:32.721Z,2.40
2023-04-20T08:18:35.512Z,2.40
2023-04-20T08:21:38.497Z,2.63
2023-04-20T08:24:41.656Z,2.50
2023-04-20T08:27:45.051Z,2.70
2023-04-20T08:30:48.059Z,2.70
2023-04-20T08:33:51.472Z,2.08
2023-04-20T08:36:53.731Z,2.10
2023-04-20T08:39:56.772Z,2.90
2023-04-20T08:42:59.267Z,2.50
2023-04-20T08:46:01.999Z,2.60
2023-04-20T08:49:07.216Z,2.30
2023-04-20T08:52:10.209Z,2.15
2023-04-20T08:55:14.109Z,2.30
2023-04-20T08:58:18.047Z,2.30
2023-04-20T09:01:28.717Z,111.78
2023-04-20T09:04:37.101Z,63.90
2023-04-20T09:07:39.941Z,48.10
2023-04-20T09:10:42.709Z,42.22
2023-04-20T09:13:45.502Z,35.55
2023-04-20T09:16:48.289Z,34.63
2023-04-20T09:19:51.466Z,33.83
2023-04-20T09:22:55.017Z,31.63
2023-04-20T09:25:58.552Z,29.27
2023-04-20T09:29:01.223Z,28.27
2023-04-20T09:32:04.145Z,27.83
2023-04-20T09:35:06.869Z,26.23
2023-04-20T09:38:09.279Z,23.05
2023-04-20T09:41:12.454Z,23.73
2023-04-20T09:44:16.143Z,21.75
2023-04-20T09:47:18.913Z,21.73
2023-04-20T09:50:27.098Z,21.00
2023-04-20T09:53:37.454Z,19.90
2023-04-20T09:56:39.986Z,18.00
2023-04-20T09:59:42.913Z,19.10
2023-04-20T10:02:45.776Z,18.52
2023-04-20T10:05:48.784Z,16.95
2023-04-20T10:08:52.118Z,16.35
2023-04-20T10:11:56.063Z,16.77
2023-04-20T10:14:59.487Z,15.20
2023-04-20T10:18:03.077Z,14.52
2023-04-20T10:21:06.158Z,14.68
2023-04-20T10:24:09.194Z,13.57
2023-04-20T10:27:12.012Z,13.27
2023-04-20T10:30:14.865Z,11.05
2023-04-20T10:33:17.685Z,11.02
2023-04-20T10:36:21.065Z,11.57
2023-04-20T10:39:24.341Z,10.55
2023-04-20T10:42:26.805Z,10.68
2023-04-20T10:45:29.496Z,10.88
2023-04-20T10:48:32.212Z,9.48
2023-04-20T10:51:34.737Z,9.95
2023-04-20T10:54:38.104Z,9.52
2023-04-20T10:57:41.554Z,8.85
2023-04-20T11:00:44.374Z,8.57
2023-04-20T11:03:47.111Z,8.73
2023-04-20T11:06:49.334Z,8.38
2023-04-20T11:09:52.216Z,10.52
2023-04-20T11:12:55.420Z,10.43
2023-04-20T11:15:58.892Z,10.25
2023-04-20T11:19:01.665Z,9.00
2023-04-20T11:22:03.995Z,9.68
2023-04-20T11:25:06.805Z,9.23
2023-04-20T11:28:09.565Z,9.90
2023-04-20T11:31:12.810Z,8.65
2023-04-20T11:34:16.340Z,8.50
2023-04-20T11:37:18.857Z,8.25
2023-04-20T11:40:21.677Z,8.23
2023-04-20T11:43:24.237Z,7.93
2023-04-20T11:46:26.949Z,7.38
2023-04-20T11:49:30.549Z,7.13
2023-04-20T11:52:33.625Z,7.22
2023-04-20T11:55:37.070Z,7.05
2023-04-20T11:58:40.071Z,7.10
2023-04-20T12:01:42.856Z,6.95
2023-04-20T12:04:46.174Z,6.18
2023-04-20T12:07:49.206Z,6.07
2023-04-20T12:10:51.838Z,6.65
2023-04-20T12:13:54.658Z,6.22
2023-04-20T12:16:58.573Z,5.65
2023-04-20T12:20:01.421Z,6.18
2023-04-20T12:23:03.810Z,5.20
2023-04-20T12:26:05.967Z,5.28
2023-04-20T12:29:08.916Z,5.50
2023-04-20T12:32:12.400Z,5.57
2023-04-20T12:35:15.585Z,6.03
2023-04-20T12:38:18.755Z,4.60
2023-04-20T12:41:21.048Z,4.72
2023-04-20T12:44:23.063Z,4.82
2023-04-20T12:47:25.887Z,4.63
2023-04-20T12:50:28.248Z,5.00
2023-04-20T12:53:30.897Z,4.90
2023-04-20T12:56:34.187Z,4.65
2023-04-20T12:59:36.748Z,4.47
2023-04-20T13:02:39.568Z,4.05
2023-04-20T13:05:42.191Z,4.47
2023-04-20T13:08:45.591Z,4.13
2023-04-20T13:11:48.571Z,4.38
2023-04-20T13:14:50.801Z,3.85
2023-04-20T13:17:53.519Z,3.85
2023-04-20T13:20:56.600Z,4.20
2023-04-20T13:23:59.986Z,3.45
2023-04-20T13:27:03.514Z,3.90
2023-04-20T13:30:05.620Z,3.88
2023-04-20T13:33:08.816Z,3.60
2023-04-20T13:36:11.986Z,3.75
2023-04-20T13:39:15.417Z,3.40
2023-04-20T13:42:18.058Z,3.22
2023-04-20T13:45:20.613Z,3.17
2023-04-20T13:48:22.956Z,3.05
2023-04-20T13:51:26.072Z,2.97
2023-04-20T13:54:29.514Z,3.00
2023-04-20T13:57:32.222Z,2.85
2023-04-20T14:00:35.131Z,3.20
2023-04-20T14:03:38.361Z,2.75
2023-04-20T14:06:41.841Z,2.83
2023-04-20T14:09:45.190Z,2.70
2023-04-20T14:12:47.560Z,2.50
2023-04-20T14:15:50.308Z,2.72
2023-04-20T14:18:52.370Z,3.08
2023-04-20T14:21:55.188Z,3.13
2023-04-20T14:24:57.875Z,2.67
2023-04-20T14:28:01.465Z,2.88
2023-04-20T14:31:04.957Z,2.90
2023-04-20T14:34:07.762Z,2.83
2023-04-20T14:37:10.934Z,2.63
2023-04-20T14:40:14.487Z,3.10
2023-04-20T14:43:17.112Z,2.58
2023-04-20T14:46:19.893Z,2.65
2023-04-20T14:49:22.044Z,2.70
2023-04-20T14:52:24.659Z,2.70
2023-04-20T14:55:27.815Z,2.35
2023-04-20T14:58:30.792Z,2.72
2023-04-20T15:01:34.354Z,2.75
2023-04-20T15:04:37.794Z,2.80
2023-04-20T15:07:41.817Z,2.60
2023-04-20T15:10:45.647Z,2.75
2023-04-20T15:13:48.999Z,2.70
2023-04-20T15:16:52.063Z,2.58
2023-04-20T15:19:55.265Z,2.72
2023-04-20T15:22:57.847Z,2.33
2023-04-20T15:26:00.589Z,2.53
2023-04-20T15:29:03.128Z,2.53
2023-04-20T15:32:05.436Z,2.58
2023-04-20T15:35:07.768Z,2.40
2023-04-20T15:38:10.075Z,2.60
2023-04-20T15:41:12.983Z,2.55
2023-04-20T15:44:16.433Z,2.45
2023-04-20T15:47:19.800Z,2.72
2023-04-20T15:50:23.377Z,2.85
2023-04-20T15:53:25.812Z,2.60
2023-04-20T15:56:29.060Z,2.80
2023-04-20T15:59:31.884Z,2.72
2023-04-20T16:02:34.453Z,4.00
2023-04-20T16:05:38.941Z,4.45
2023-04-20T16:08:41.948Z,4.13
2023-04-20T16:11:44.612Z,3.90
2023-04-20T16:14:47.453Z,3.85
2023-04-20T16:17:51.005Z,4.25
2023-04-20T16:20:53.762Z,3.70
2023-04-20T16:23:57.756Z,3.85
2023-04-20T16:27:01.674Z,3.45
2023-04-20T16:30:04.753Z,3.60
2023-04-20T16:33:08.035Z,3.85
2023-04-20T16:36:11.337Z,3.40
2023-04-20T16:39:14.591Z,3.50
2023-04-20T16:42:18.220Z,3.60
2023-04-20T16:45:21.136Z,3.58
2023-04-20T16:48:24.141Z,3.30
2023-04-20T16:51:26.878Z,3.35
2023-04-20T16:54:29.591Z,3.45
2023-04-20T16:57:32.054Z,3.40
2023-04-20T17:00:35.153Z,3.13
2023-04-20T17:03:38.406Z,3.13
2023-04-20T17:06:42.446Z,3.20
2023-04-20T17:09:45.400Z,3.20
2023-04-20T17:12:48.403Z,2.88
2023-04-20T17:15:51.154Z,3.00
2023-04-20T17:18:54.604Z,2.90
2023-04-20T17:21:56.825Z,2.97
2023-04-20T17:24:59.437Z,3.13
2023-04-20T17:28:01.895Z,2.90
2023-04-20T17:31:04.428Z,2.72
2023-04-20T17:34:07.093Z,2.63
2023-04-20T17:37:09.975Z,2.78
2023-04-20T17:40:13.643Z,2.80
2023-04-20T17:43:16.353Z,3.03
2023-04-20T17:46:19.838Z,2.92
2023-04-20T17:49:22.086Z,2.97
2023-04-20T17:52:24.538Z,2.50
2023-04-20T17:55:28.042Z,2.80
2023-04-20T17:58:30.977Z,2.53
2023-04-20T18:01:34.560Z,2.50
2023-04-20T18:04:37.815Z,2.78
2023-04-20T18:07:40.662Z,2.45
2023-04-20T18:10:43.367Z,2.50
2023-04-20T18:13:46.513Z,2.67
2023-04-20T18:16:50.590Z,2.50
2023-04-20T18:19:53.680Z,2.58
2023-04-20T18:22:56.233Z,2.90
2023-04-20T18:25:58.795Z,2.53
2023-04-20T18:29:01.312Z,2.75
2023-04-20T18:32:04.671Z,2.42
2023-04-20T18:35:08.257Z,2.47
2023-04-20T18:38:11.204Z,2.63
2023-04-20T18:41:14.421Z,2.70
2023-04-20T18:44:17.786Z,2.60
2023-04-20T18:47:20.649Z,2.60
2023-04-20T18:50:23.710Z,2.58
2023-04-20T18:53:27.022Z,2.72
2023-04-20T18:56:30.602Z,2.80
2023-04-20T18:59:32.886Z,2.60
2023-04-20T19:02:35.294Z,2.58
2023-04-20T19:05:38.379Z,2.50
2023-04-20T19:08:41.499Z,2.78
2023-04-20T19:11:44.273Z,2.30
2023-04-20T19:14:49.119Z,2.70
2023-04-20T19:17:52.119Z,2.40
2023-04-20T19:20:55.060Z,2.45
2023-04-20T19:23:58.081Z,2.38
2023-04-20T19:27:00.313Z,2.70
2023-04-20T19:30:03.201Z,2.70
2023-04-20T19:33:06.821Z,2.70
2023-04-20T19:36:09.632Z,2.40
2023-04-20T19:39:12.993Z,2.20
2023-04-20T19:42:16.075Z,2.40
2023-04-20T19:45:18.771Z,2.38
2023-04-20T19:48:21.838Z,2.53
2023-04-20T19:51:25.483Z,2.47
2023-04-20T19:54:28.864Z,2.45
2023-04-20T19:57:31.477Z,2.45
2023-04-20T20:00:34.544Z,2.55
2023-04-20T20:03:37.498Z,2.45
2023-04-20T20:06:40.800Z,2.40
2023-04-20T20:09:44.359Z,2.38
2023-04-20T20:12:47.558Z,2.70
2023-04-20T20:15:51.560Z,2.33
2023-04-20T20:18:54.075Z,2.40
2023-04-20T20:21:56.073Z,2.65
2023-04-20T20:24:58.921Z,2.80
2023-04-20T20:28:02.107Z,2.78
2023-04-20T20:31:04.702Z,2.58
2023-04-20T20:34:09.171Z,2.58
2023-04-20T20:37:12.793Z,2.65
2023-04-20T20:40:15.690Z,2.45
2023-04-20T20:43:18.111Z,2.80
2023-04-20T20:46:20.703Z,2.58
2023-04-20T20:49:23.552Z,2.70
2023-04-20T20:52:25.875Z,2.65
2023-04-20T20:55:28.165Z,2.80
2023-04-20T20:58:31.030Z,2.40
2023-04-20T21:01:34.017Z,2.80
2023-04-20T21:04:36.758Z,2.90
2023-04-20T21:07:39.413Z,2.80
2023-04-20T21:10:41.764Z,2.65
2023-04-20T21:13:45.533Z,2.63
2023-04-20T21:16:48.544Z,2.63
2023-04-20T21:19:51.180Z,2.70
2023-04-20T21:22:53.898Z,3.05
2023-04-20T21:25:56.348Z,2.80
2023-04-20T21:28:58.690Z,2.83
2023-04-20T21:32:00.957Z,3.10
2023-04-20T21:35:04.033Z,3.00
2023-04-20T21:38:07.043Z,3.15
2023-04-20T21:41:09.860Z,3.00
2023-04-20T21:44:13.105Z,3.30
2023-04-20T21:47:15.807Z,3.10
2023-04-20T21:50:19.158Z,3.70
2023-04-20T21:53:21.684Z,3.38
2023-04-20T21:56:24.380Z,3.60
2023-04-20T21:59:26.841Z,3.30
2023-04-20T22:02:29.852Z,3.38
2023-04-20T22:05:32.646Z,3.40
2023-04-20T22:08:35.371Z,3.10
2023-04-20T22:11:38.414Z,3.67
2023-04-20T22:14:41.164Z,3.58
2023-04-20T22:17:43.846Z,3.50
2023-04-20T22:20:46.805Z,3.60
2023-04-20T22:23:49.980Z,3.50
2023-04-20T22:26:52.937Z,3.22
2023-04-20T22:29:55.977Z,3.40
2023-04-20T22:32:59.363Z,3.83
2023-04-20T22:36:02.371Z,3.40
2023-04-20T22:39:05.110Z,3.45
2023-04-20T22:42:08.882Z,3.58
2023-04-20T22:45:11.696Z,3.97
2023-04-20T22:48:14.577Z,3.92
2023-04-20T22:51:17.385Z,4.03
2023-04-20T22:54:20.635Z,3.95
2023-04-20T22:57:23.917Z,3.80
2023-04-20T23:00:27.483Z,3.58
2023-04-20T23:03:29.814Z,3.60
2023-04-20T23:06:32.977Z,4.05
2023-04-20T23:09:35.925Z,3.72
2023-04-20T23:12:38.926Z,4.10
2023-04-20T23:15:41.553Z,4.30
2023-04-20T23:18:44.538Z,4.13
2023-04-20T23:21:47.685Z,4.07
2023-04-20T23:24:50.717Z,4.18
2023-04-20T23:27:53.444Z,4.47
2023-04-20T23:30:55.572Z,4.72
2023-04-20T23:33:58.310Z,4.57
2023-04-20T23:37:01.462Z,4.68
2023-04-20T23:40:04.534Z,4.43
2023-04-20T23:43:07.184Z,4.35
2023-04-20T23:46:11.022Z,4.68
2023-04-20T23:49:14.204Z,4.35
2023-04-20T23:52:17.105Z,4.30
2023-04-20T23:55:20.714Z,4.45
2023-04-20T23:58:23.598Z,5.00
